Ballarat, Victoria

4:04 PM AEDT on March 02, 2015 (GMT +1100)
Bunkers Hill | Change Station
CLOSE
Current Station
Personal Weather Station
Location: Bunkers Hill, VICTORIA
Elevation: 1388 ft
Nearby Weather Stations

Elev 1388 ft 37.56 °S, 143.76 °E | Updated 22 seconds ago

Clear
Clear
76.5 °F
Feels Like 77 °F
N
3.6
Wind Variable Wind from SSW
Gusts 4.9 mph

Today
High -- | Low -- °F
--% Chance of Precip.
Yesterday
High -- | Low -- °F
Precip. -- in
7:09 AM 8:03 PM
Waxing Gibbous, 89% visible
Pressure 29.95 in
Visibility -9999.0 miles
Clouds
Heat Index 77 °F
Dew Point 31 °F
Humidity 19%
Rainfall 0.00 in
Snow Depth Not available.
UV 4.0 out of 12
Pollen Not available.
Air Quality Not available.
Flu Activity Not available.
METAR YMAV 020430Z AUTO 15004KT 100V190 //// // NCD 20/10 Q1014

More Conditions Fewer Conditions

Pressure 29.95 in
Visibility -9999.0 miles
Clouds
Heat Index 77 °F
Dew Point 31 °F
Humidity 19%
Rainfall 0.00 in
Snow Depth Not available.
UV 4.0 out of 12
Pollen Not available.
Air Quality Not available.
Flu Activity Not available.
METAR YMAV 020430Z AUTO 15004KT 100V190 //// // NCD 20/10 Q1014

More Conditions Fewer Conditions

10-Day Weather Forecast

Almanac

Astronomy

Mar. 02, 2015 Rise Set
Actual Time
Civil Twilight
Nautical Twilight
Astronomical Twilight
Moon
Length of Visible Light
Length of Day
Tomorrow will be .
, % of the Moon is Illuminated

Today's Extremes

Country Highs Country Lows

Community

WunderPhotos

Upload Photos

1,801,728 photos uploaded!

WunderBlogs® & News

Nearby

Air Quality

  Air Quality AQ Index Pollutant
Not available.

Snow Depth

Station Depth Elevation

Earthquake Activity

City Distance Mag. Time & Date
Minimum magnitude displayed is 2.5.

Coastal Water Temperatures

Place Temperature

Nearby Weather Stations